Time;durP1;ratioP1;P1;durP2;ratioP2;P2;SDS_P1;SDS_P2;PMS_P1;PMS_P2;Temp;Humidity;BMP_temperature;BMP_pressure;BME280_temperature;BME280_humidity;BME280_pressure;Samples;Min_cycle;Max_cycle;Signal;HPM_P1;HPM_P2
2022/06/27 00:02:10;;;;;;;6.77;5.80;;;19.30;1.00;;;;;;5074086;28;20221;-77
2022/06/27 00:04:35;;;;;;;6.77;5.83;;;19.20;1.70;;;;;;5072934;28;20850;-76
2022/06/27 00:07:05;;;;;;;5.80;5.20;;;19.20;2.30;;;;;;5074003;28;20252;-76
2022/06/27 00:09:31;;;;;;;6.57;4.80;;;19.20;1.00;;;;;;5061257;28;20176;-77
2022/06/27 00:11:59;;;;;;;8.00;5.13;;;19.10;1.00;;;;;;5074138;28;20429;-77
2022/06/27 00:14:25;;;;;;;5.07;4.57;;;19.20;1.00;;;;;;5074205;28;20182;-77
2022/06/27 00:16:51;;;;;;;6.13;5.00;;;19.20;1.00;;;;;;5073582;28;20452;-78
2022/06/27 00:19:17;;;;;;;6.40;5.10;;;19.10;1.60;;;;;;5072886;28;20453;-77
2022/06/27 00:21:44;;;;;;;4.50;4.10;;;19.10;5.90;;;;;;5073232;28;20209;-77
2022/06/27 00:24:12;;;;;;;5.73;4.50;;;19.10;5.70;;;;;;5073891;28;20433;-78
2022/06/27 00:26:38;;;;;;;6.47;5.00;;;19.20;4.30;;;;;;5073638;28;20456;-77
2022/06/27 00:29:04;;;;;;;6.73;4.80;;;19.20;7.00;;;;;;5073678;28;20437;-77
2022/06/27 00:31:30;;;;;;;10.50;5.90;;;19.20;13.40;;;;;;5073265;28;20217;-77
2022/06/27 00:33:55;;;;;;;17.40;6.63;;;19.20;19.20;;;;;;5068367;28;20465;-77
2022/06/27 00:36:23;;;;;;;9.60;6.00;;;19.30;24.30;;;;;;5070422;28;20188;-77
2022/06/27 00:38:49;;;;;;;12.07;6.20;;;19.30;30.30;;;;;;5073954;28;20206;-77
2022/06/27 00:41:15;;;;;;;13.60;5.07;;;19.40;30.90;;;;;;5073124;28;20954;-77
2022/06/27 00:43:44;;;;;;;11.13;5.73;;;19.40;27.20;;;;;;5073589;28;20187;-77
2022/06/27 00:46:10;;;;;;;12.40;6.00;;;19.50;26.70;;;;;;5072968;28;20325;-77
2022/06/27 00:48:36;;;;;;;12.33;5.83;;;19.50;31.70;;;;;;5072738;28;20404;-77
2022/06/27 00:51:02;;;;;;;11.03;6.23;;;19.50;35.30;;;;;;5073231;28;20423;-77
2022/06/27 00:53:29;;;;;;;7.43;5.93;;;19.50;42.10;;;;;;5065308;28;20557;-80
2022/06/27 00:55:55;;;;;;;14.33;6.50;;;19.40;50.20;;;;;;5068562;28;20698;-79
2022/06/27 00:58:21;;;;;;;7.23;6.50;;;19.40;50.30;;;;;;5069167;28;20429;-80
2022/06/27 01:00:47;;;;;;;13.23;8.43;;;19.50;50.40;;;;;;5064982;28;20434;-80
2022/06/27 01:03:13;;;;;;;12.33;7.80;;;19.40;50.50;;;;;;5068690;28;21086;-79
2022/06/27 01:05:51;;;;;;;14.93;9.33;;;19.50;50.40;;;;;;5068706;28;20544;-80
2022/06/27 01:08:18;;;;;;;11.50;8.60;;;19.50;50.40;;;;;;5064164;28;20174;-78
2022/06/27 01:10:44;;;;;;;14.30;9.50;;;19.40;50.30;;;;;;5070059;28;20908;-78
2022/06/27 01:13:09;;;;;;;11.43;8.80;;;19.30;72.10;;;;;;5072853;28;20430;-78
2022/06/27 01:15:35;;;;;;;15.20;9.37;;;19.30;82.30;;;;;;5072662;28;20454;-77
2022/06/27 01:18:01;;;;;;;11.60;8.60;;;19.40;74.30;;;;;;5073070;28;20252;-77
2022/06/27 01:20:27;;;;;;;11.93;9.20;;;19.40;75.80;;;;;;5072389;28;20194;-77
2022/06/27 01:22:53;;;;;;;14.43;8.53;;;19.40;71.50;;;;;;5072302;28;20852;-77
2022/06/27 01:25:20;;;;;;;16.17;8.50;;;19.50;55.50;;;;;;5073184;28;20225;-78
2022/06/27 01:27:46;;;;;;;15.83;9.40;;;19.60;50.60;;;;;;5072295;28;20430;-77
2022/06/27 01:30:12;;;;;;;25.10;9.73;;;19.60;50.70;;;;;;5072825;28;20443;-77
2022/06/27 01:32:38;;;;;;;10.93;8.47;;;19.60;50.50;;;;;;5072687;28;20182;-77
2022/06/27 01:35:04;;;;;;;14.33;8.60;;;19.60;50.50;;;;;;5072582;28;20417;-77
2022/06/27 01:37:30;;;;;;;15.90;8.90;;;19.60;50.50;;;;;;5071867;28;20167;-77
2022/06/27 01:39:58;;;;;;;12.47;9.10;;;19.60;50.70;;;;;;5073152;28;20387;-80
2022/06/27 01:42:24;;;;;;;14.00;8.90;;;19.60;50.70;;;;;;5072208;28;20174;-80
2022/06/27 01:44:50;;;;;;;9.37;8.33;;;19.60;50.50;;;;;;5072851;28;20409;-80
2022/06/27 01:47:15;;;;;;;12.43;8.63;;;19.60;50.70;;;;;;5071048;28;20625;-80
2022/06/27 01:49:41;;;;;;;12.80;8.70;;;19.60;50.60;;;;;;5072636;28;20169;-80
2022/06/27 01:52:08;;;;;;;15.10;9.00;;;19.60;50.60;;;;;;5072466;28;20200;-80
2022/06/27 01:54:35;;;;;;;12.93;9.00;;;19.70;50.60;;;;;;5071651;28;20843;-80
2022/06/27 01:57:01;;;;;;;13.57;8.57;;;19.70;50.60;;;;;;5072001;28;20913;-80
2022/06/27 01:59:29;;;;;;;15.13;8.83;;;19.70;50.60;;;;;;5072214;28;20417;-80
2022/06/27 02:01:58;;;;;;;14.83;8.80;;;19.70;50.60;;;;;;5071014;28;20499;-80
2022/06/27 02:04:24;;;;;;;19.03;9.87;;;19.70;50.60;;;;;;5072187;28;20438;-80
2022/06/27 02:06:51;;;;;;;13.10;8.97;;;19.70;50.60;;;;;;5072313;28;20457;-80
2022/06/27 02:09:17;;;;;;;12.33;8.60;;;19.70;50.60;;;;;;5072462;28;20421;-80
2022/06/27 02:11:45;;;;;;;11.77;8.97;;;19.70;50.60;;;;;;5072359;28;20486;-80
2022/06/27 02:14:11;;;;;;;15.97;8.87;;;19.70;50.60;;;;;;5072309;28;20187;-80
2022/06/27 02:16:38;;;;;;;18.03;8.90;;;19.70;50.60;;;;;;5072500;28;20410;-80
2022/06/27 02:19:04;;;;;;;22.67;9.80;;;19.70;50.60;;;;;;5071997;28;20647;-80
2022/06/27 02:21:31;;;;;;;12.47;9.93;;;19.70;50.60;;;;;;5069346;28;25050;-80
2022/06/27 02:23:58;;;;;;;10.30;9.00;;;19.70;50.60;;;;;;5070207;28;20958;-77
2022/06/27 02:26:31;;;;;;;16.20;9.30;;;19.70;53.30;;;;;;5072195;28;20853;-77
2022/06/27 02:28:58;;;;;;;15.53;9.73;;;19.60;50.50;;;;;;5072070;28;20413;-77
2022/06/27 02:31:24;;;;;;;13.37;9.63;;;19.60;50.50;;;;;;5072051;28;20415;-77
2022/06/27 02:33:52;;;;;;;10.97;9.40;;;19.50;68.80;;;;;;5071981;28;20438;-77
2022/06/27 02:36:27;;;;;;;14.10;9.43;;;19.50;72.80;;;;;;5072272;28;20482;-77
2022/06/27 02:38:55;;;;;;;14.80;9.90;;;19.50;67.80;;;;;;5072664;28;20465;-80
2022/06/27 02:41:22;;;;;;;11.20;9.90;;;19.50;71.60;;;;;;5070877;28;20458;-80
2022/06/27 02:43:52;;;;;;;11.10;9.37;;;19.50;72.50;;;;;;5071898;28;20417;-80
2022/06/27 02:46:19;;;;;;;16.23;9.63;;;19.50;73.60;;;;;;5072092;28;20482;-80
2022/06/27 02:48:50;;;;;;;14.80;10.00;;;19.50;75.20;;;;;;5074296;28;20406;-80
2022/06/27 02:51:21;;;;;;;18.70;12.37;;;19.50;73.10;;;;;;5075538;28;20418;-80
2022/06/27 02:53:55;;;;;;;15.80;10.90;;;19.40;73.90;;;;;;5075478;28;20409;-80
2022/06/27 02:56:25;;;;;;;12.77;10.03;;;19.40;80.10;;;;;;5075339;28;20417;-77
2022/06/27 02:59:01;;;;;;;14.10;9.60;;;19.30;81.30;;;;;;5075473;28;20465;-78
2022/06/27 03:01:29;;;;;;;16.40;9.40;;;19.30;81.70;;;;;;5062770;28;20450;-78
2022/06/27 03:03:57;;;;;;;12.00;9.80;;;19.10;91.20;;;;;;5075236;28;20417;-78
2022/06/27 03:06:23;;;;;;;15.07;8.90;;;19.10;93.90;;;;;;5075606;28;20452;-78
2022/06/27 03:08:49;;;;;;;10.67;7.83;;;19.10;95.30;;;;;;5075080;28;20420;-77
2022/06/27 03:11:19;;;;;;;8.70;7.70;;;19.10;95.00;;;;;;5075555;28;20181;-80
2022/06/27 03:13:46;;;;;;;10.93;7.80;;;19.10;93.90;;;;;;5076939;28;20182;-80
2022/06/27 03:16:19;;;;;;;8.73;7.83;;;19.10;91.10;;;;;;5086721;28;20414;-80
2022/06/27 03:18:46;;;;;;;10.93;8.10;;;19.10;91.00;;;;;;5075090;28;20881;-80
2022/06/27 03:21:11;;;;;;;7.43;6.77;;;19.10;91.40;;;;;;5071045;28;20403;-80
2022/06/27 03:23:38;;;;;;;13.73;8.23;;;19.00;90.70;;;;;;5072262;28;20497;-80
2022/06/27 03:26:04;;;;;;;12.70;8.20;;;19.00;92.60;;;;;;5075218;28;20191;-77
2022/06/27 03:28:30;;;;;;;8.80;8.00;;;19.00;92.60;;;;;;5074944;28;20420;-77
2022/06/27 03:30:56;;;;;;;9.77;7.70;;;19.00;93.30;;;;;;5074969;28;20420;-77
2022/06/27 03:33:21;;;;;;;15.37;8.10;;;19.00;91.30;;;;;;5074918;28;20594;-77
2022/06/27 03:35:47;;;;;;;11.57;8.10;;;18.90;91.40;;;;;;5074431;28;20196;-77
2022/06/27 03:38:13;;;;;;;13.17;8.00;;;18.90;91.90;;;;;;5074900;28;20183;-77
2022/06/27 03:40:41;;;;;;;15.87;7.30;;;18.90;92.40;;;;;;5074944;28;20211;-80
2022/06/27 03:43:07;;;;;;;9.30;8.40;;;18.90;95.00;;;;;;5074573;28;20189;-80
2022/06/27 03:45:33;;;;;;;10.33;7.90;;;19.00;96.60;;;;;;5074465;28;21145;-80
2022/06/27 03:48:00;;;;;;;9.23;8.33;;;19.00;97.00;;;;;;5073395;28;20182;-80
2022/06/27 03:50:27;;;;;;;9.50;8.50;;;19.10;97.60;;;;;;5074491;28;20181;-80
2022/06/27 03:52:54;;;;;;;12.40;8.07;;;19.10;97.30;;;;;;5074481;28;20449;-80
2022/06/27 03:55:20;;;;;;;15.63;8.90;;;19.10;96.20;;;;;;5074616;28;20524;-77
2022/06/27 03:57:57;;;;;;;10.40;8.03;;;19.20;94.80;;;;;;5069969;28;20410;-77
2022/06/27 04:00:26;;;;;;;9.83;8.40;;;19.20;94.00;;;;;;5071482;28;20421;-77
2022/06/27 04:02:52;;;;;;;9.70;8.70;;;19.20;95.40;;;;;;5074032;28;20542;-77
2022/06/27 04:05:19;;;;;;;18.40;9.70;;;19.20;96.90;;;;;;5074046;28;20428;-77
2022/06/27 04:07:45;;;;;;;13.27;10.00;;;19.20;98.90;;;;;;5073884;28;20416;-77
2022/06/27 04:10:12;;;;;;;12.00;10.13;;;19.20;99.90;;;;;;5069236;28;20433;-78
2022/06/27 04:12:38;;;;;;;12.03;10.10;;;19.20;99.90;;;;;;5073959;28;20961;-78
2022/06/27 04:15:06;;;;;;;16.77;10.60;;;19.30;99.90;;;;;;5072523;28;20433;-77
2022/06/27 04:17:32;;;;;;;17.07;12.60;;;19.30;99.90;;;;;;5073967;28;20418;-77
2022/06/27 04:19:58;;;;;;;17.63;11.50;;;18.80;99.90;;;;;;5073388;28;20431;-78
2022/06/27 04:22:24;;;;;;;25.20;13.43;;;19.40;99.90;;;;;;5069305;28;20706;-78
2022/06/27 04:24:50;;;;;;;19.30;15.00;;;19.30;99.90;;;;;;5073928;28;20416;-77
2022/06/27 04:27:19;;;;;;;20.40;15.80;;;19.30;99.90;;;;;;5073980;28;20202;-77
2022/06/27 04:29:45;;;;;;;18.43;15.50;;;19.30;99.90;;;;;;5073184;28;20420;-76
2022/06/27 04:32:10;;;;;;;24.77;16.00;;;19.30;99.90;;;;;;5073645;28;20420;-75
2022/06/27 04:34:43;;;;;;;24.03;16.57;;;19.40;99.90;;;;;;5073518;28;20175;-75
2022/06/27 04:37:09;;;;;;;21.90;15.60;;;19.40;99.90;;;;;;5073447;28;20532;-75
2022/06/27 04:39:34;;;;;;;22.03;15.80;;;19.40;99.90;;;;;;5073148;28;20431;-75
2022/06/27 04:42:00;;;;;;;19.80;16.00;;;19.40;99.90;;;;;;5073906;28;20193;-77
2022/06/27 04:44:26;;;;;;;24.57;15.70;;;19.40;99.90;;;;;;5066712;28;20178;-77
2022/06/27 04:46:52;;;;;;;26.50;15.93;;;19.30;99.90;;;;;;5073535;28;20637;-77
2022/06/27 04:49:20;;;;;;;27.20;15.97;;;19.30;99.90;;;;;;5073226;28;20177;-77
2022/06/27 04:51:50;;;;;;;22.93;16.00;;;19.30;99.90;;;;;;5073401;28;20408;-77
2022/06/27 04:54:17;;;;;;;37.27;16.10;;;19.20;99.90;;;;;;5073427;28;20541;-77
2022/06/27 04:56:44;;;;;;;22.40;17.43;;;19.10;99.90;;;;;;5073642;28;20469;-77
2022/06/27 04:59:11;;;;;;;29.03;18.73;;;19.20;99.90;;;;;;5073184;28;20501;-77
2022/06/27 05:01:37;;;;;;;24.27;17.90;;;19.20;99.90;;;;;;5073090;28;20431;-77
2022/06/27 05:04:03;;;;;;;21.60;16.87;;;19.20;99.90;;;;;;5073256;28;20574;-78
2022/06/27 05:06:30;;;;;;;29.23;17.30;;;19.30;99.90;;;;;;5072727;28;20442;-77
2022/06/27 05:08:55;;;;;;;24.60;17.63;;;19.30;99.90;;;;;;5072779;28;20497;-77
2022/06/27 05:11:21;;;;;;;23.20;16.30;;;19.40;99.90;;;;;;5072211;28;20458;-76
2022/06/27 05:13:46;;;;;;;33.20;16.70;;;19.50;99.60;;;;;;5073084;28;20175;-75
2022/06/27 05:16:12;;;;;;;27.53;16.30;;;19.50;99.00;;;;;;5072950;28;20233;-75
2022/06/27 05:18:38;;;;;;;21.30;15.77;;;19.50;97.60;;;;;;5073046;28;20175;-75
2022/06/27 05:21:04;;;;;;;22.90;15.77;;;19.60;97.00;;;;;;5072690;28;20177;-75
2022/06/27 05:23:29;;;;;;;20.90;15.03;;;19.70;97.30;;;;;;5072985;28;20648;-75
2022/06/27 05:25:55;;;;;;;15.73;12.50;;;19.80;96.80;;;;;;5073212;28;20191;-75
2022/06/27 05:28:21;;;;;;;20.20;12.93;;;19.90;93.90;;;;;;5071505;28;20186;-75
2022/06/27 05:30:47;;;;;;;18.20;12.43;;;20.20;91.20;;;;;;5071168;28;20279;-78
2022/06/27 05:33:13;;;;;;;17.50;11.50;;;20.30;74.00;;;;;;5073732;28;20295;-78
2022/06/27 05:35:39;;;;;;;10.73;8.80;;;20.50;73.40;;;;;;5072519;28;20961;-77
2022/06/27 05:38:04;;;;;;;12.37;9.00;;;20.80;51.80;;;;;;5077640;28;20179;-77
2022/06/27 05:40:30;;;;;;;9.27;7.53;;;20.80;51.40;;;;;;5047947;28;20208;-79
2022/06/27 05:42:57;;;;;;;14.20;7.53;;;20.80;35.10;;;;;;5057868;28;20186;-80
2022/06/27 05:45:23;;;;;;;26.23;8.07;;;21.00;24.90;;;;;;5063390;28;20436;-80
2022/06/27 05:47:57;;;;;;;9.03;7.13;;;21.20;20.10;;;;;;5089414;28;20431;-81
2022/06/27 05:50:23;;;;;;;10.40;6.93;;;21.40;3.00;;;;;;5091513;28;20424;-80
2022/06/27 05:52:52;;;;;;;7.50;6.70;;;21.60;1.00;;;;;;5072286;28;20498;-80
2022/06/27 05:55:18;;;;;;;8.13;6.47;;;21.70;1.00;;;;;;5082319;28;20415;-80
2022/06/27 05:57:45;;;;;;;10.20;7.53;;;21.50;1.50;;;;;;5073072;28;20446;-78
2022/06/27 06:00:11;;;;;;;10.53;7.20;;;21.50;1.00;;;;;;5073031;28;20413;-77
2022/06/27 06:02:37;;;;;;;12.00;6.27;;;21.60;1.00;;;;;;5089031;28;20407;-77
2022/06/27 06:05:04;;;;;;;10.07;6.50;;;21.50;1.00;;;;;;5082122;28;20750;-78
2022/06/27 06:07:30;;;;;;;11.93;7.00;;;21.40;1.00;;;;;;5072116;28;20457;-78
2022/06/27 06:09:55;;;;;;;9.87;7.20;;;21.40;1.00;;;;;;5072619;28;20932;-78
2022/06/27 06:12:26;;;;;;;9.30;6.40;;;21.50;1.00;;;;;;5072535;28;20189;-78
2022/06/27 06:14:52;;;;;;;8.27;6.50;;;21.70;1.00;;;;;;5072099;28;20163;-78
2022/06/27 06:17:18;;;;;;;8.37;6.37;;;21.90;1.00;;;;;;5085165;28;20413;-77
2022/06/27 06:19:43;;;;;;;6.60;6.00;;;22.00;1.00;;;;;;5071036;28;20580;-77
2022/06/27 06:22:09;;;;;;;9.97;7.00;;;22.20;1.00;;;;;;5068346;28;20471;-78
2022/06/27 06:24:35;;;;;;;7.23;5.60;;;22.20;1.00;;;;;;5076045;28;20669;-77
2022/06/27 06:27:01;;;;;;;5.80;5.30;;;22.30;1.00;;;;;;5076185;28;20257;-78
2022/06/27 06:29:27;;;;;;;5.70;4.90;;;22.30;1.00;;;;;;5076017;28;20530;-77
2022/06/27 06:31:53;;;;;;;6.63;6.03;;;22.20;1.00;;;;;;5075979;28;20405;-77
2022/06/27 06:34:18;;;;;;;10.77;5.57;;;22.00;1.00;;;;;;5075434;28;20694;-78
2022/06/27 06:36:45;;;;;;;9.20;5.87;;;22.00;1.00;;;;;;5062175;28;20179;-78
2022/06/27 06:39:12;;;;;;;7.50;5.77;;;22.10;1.00;;;;;;5075706;28;20182;-78
2022/06/27 06:41:39;;;;;;;5.60;5.10;;;22.30;1.00;;;;;;5068041;28;20884;-80
2022/06/27 06:44:05;;;;;;;16.20;6.30;;;22.30;1.00;;;;;;5075696;28;20450;-80
2022/06/27 06:46:32;;;;;;;6.73;6.07;;;22.40;1.00;;;;;;5075645;28;20817;-81
2022/06/27 06:49:02;;;;;;;11.97;5.67;;;22.40;1.00;;;;;;5075636;28;20904;-81
2022/06/27 06:51:31;;;;;;;5.97;5.47;;;22.40;1.00;;;;;;5075295;28;20468;-81
2022/06/27 06:53:56;;;;;;;6.90;5.97;;;22.40;1.00;;;;;;5075622;28;20430;-80
2022/06/27 06:56:24;;;;;;;6.23;5.50;;;22.50;1.00;;;;;;5075677;28;20422;-78
2022/06/27 06:58:50;;;;;;;8.10;5.23;;;22.60;1.00;;;;;;5075564;28;20276;-77
2022/06/27 07:01:16;;;;;;;7.77;4.90;;;22.50;1.00;;;;;;5075528;28;20907;-77
2022/06/27 07:03:41;;;;;;;6.03;4.97;;;22.40;1.00;;;;;;5075360;28;20467;-77
2022/06/27 07:06:09;;;;;;;8.57;4.70;;;22.60;1.00;;;;;;5075422;28;20717;-77
2022/06/27 07:08:37;;;;;;;5.13;4.63;;;22.70;1.00;;;;;;5075393;28;20172;-77
2022/06/27 07:11:03;;;;;;;5.67;4.97;;;22.90;1.00;;;;;;5075514;28;20452;-77
2022/06/27 07:13:29;;;;;;;6.10;4.53;;;23.00;1.00;;;;;;5075531;28;20519;-77
2022/06/27 07:15:55;;;;;;;4.93;4.40;;;23.10;1.00;;;;;;5089183;28;20468;-77
2022/06/27 07:18:25;;;;;;;5.27;4.77;;;23.20;1.00;;;;;;5073949;28;20423;-77
2022/06/27 07:20:51;;;;;;;5.87;4.40;;;23.00;1.00;;;;;;5075172;28;20451;-77
2022/06/27 07:23:17;;;;;;;7.40;4.30;;;23.10;1.00;;;;;;5074939;28;20527;-77
2022/06/27 07:25:43;;;;;;;9.60;4.17;;;23.30;1.00;;;;;;5075177;28;20207;-77
2022/06/27 07:28:08;;;;;;;6.00;3.47;;;23.40;1.00;;;;;;5075363;28;20954;-80
2022/06/27 07:30:34;;;;;;;5.00;4.53;;;23.70;1.00;;;;;;5075138;28;20440;-80
2022/06/27 07:33:00;;;;;;;4.40;3.70;;;23.90;1.00;;;;;;5074479;28;20177;-80
2022/06/27 07:35:29;;;;;;;4.50;3.90;;;24.10;1.00;;;;;;5073894;28;20435;-80
2022/06/27 07:37:54;;;;;;;4.30;3.47;;;24.10;1.00;;;;;;5074837;28;20415;-83
2022/06/27 07:40:22;;;;;;;4.50;3.40;;;24.10;1.00;;;;;;5074588;28;20511;-84
2022/06/27 07:42:54;;;;;;;4.73;3.50;;;24.00;1.00;;;;;;5074950;28;20175;-79
2022/06/27 07:45:24;;;;;;;7.67;3.20;;;24.10;1.00;;;;;;5063700;28;20405;-79
2022/06/27 07:47:50;;;;;;;8.77;3.20;;;24.30;1.00;;;;;;5059584;28;20797;-79
2022/06/27 07:53:11;;;;;;;4.10;3.70;;;24.60;1.00;;;;;;5074449;28;20518;-79
2022/06/27 07:55:39;;;;;;;5.87;3.43;;;24.60;1.00;;;;;;5074056;28;20510;-79
2022/06/27 07:58:07;;;;;;;4.30;3.03;;;24.70;1.00;;;;;;5074259;28;20430;-80
2022/06/27 08:00:33;;;;;;;3.50;3.20;;;24.80;1.00;;;;;;5074420;28;20446;-80
2022/06/27 08:03:36;;;;;;;7.70;3.10;;;24.90;1.00;;;;;;5073769;28;20429;-79
2022/06/27 08:05:46;;;;;;;5.93;3.50;;;24.70;1.00;;;;;;5074178;28;20454;-80
2022/06/27 08:08:11;;;;;;;2.67;2.47;;;24.40;1.00;;;;;;5073767;28;20422;-80
2022/06/27 08:10:37;;;;;;;3.27;2.87;;;24.10;1.00;;;;;;5072667;28;20498;-80
2022/06/27 08:13:03;;;;;;;7.30;3.50;;;23.80;1.00;;;;;;5074424;28;20182;-84
2022/06/27 08:15:29;;;;;;;4.63;2.80;;;23.80;1.00;;;;;;5073943;28;20164;-83
2022/06/27 08:17:58;;;;;;;3.60;3.30;;;23.70;1.00;;;;;;5074085;28;20423;-83
2022/06/27 08:20:23;;;;;;;5.43;3.03;;;23.60;1.00;;;;;;5073814;28;20503;-88
2022/06/27 08:22:51;;;;;;;13.43;3.83;;;23.60;1.00;;;;;;5071072;28;20452;-88
2022/06/27 08:25:17;;;;;;;3.70;3.03;;;23.70;1.00;;;;;;5074865;28;20182;-88
2022/06/27 08:27:48;;;;;;;4.03;3.30;;;23.70;1.00;;;;;;5074668;28;20474;-88
2022/06/27 08:30:15;;;;;;;4.80;2.93;;;24.00;1.00;;;;;;5073676;28;20425;-88
2022/06/27 08:32:41;;;;;;;5.63;2.90;;;24.40;1.00;;;;;;5072839;28;20951;-88
2022/06/27 08:35:08;;;;;;;6.73;3.13;;;24.80;1.00;;;;;;5073371;28;20419;-88
2022/06/27 08:37:34;;;;;;;6.63;2.60;;;24.90;1.00;;;;;;5073444;28;20673;-88
2022/06/27 08:40:01;;;;;;;4.07;3.10;;;24.90;1.00;;;;;;5073139;28;20461;-88
2022/06/27 08:42:30;;;;;;;3.60;2.73;;;25.00;1.00;;;;;;5077650;28;20429;-82
2022/06/27 08:44:57;;;;;;;2.80;2.30;;;25.10;1.00;;;;;;5074386;28;20534;-82
2022/06/27 08:47:48;;;;;;;5.10;2.50;;;25.20;1.00;;;;;;5072829;28;20553;-82
2022/06/27 08:53:39;;;;;;;2.40;2.30;;;25.90;1.00;;;;;;5061727;28;20432;-81
2022/06/27 08:56:10;;;;;;;5.50;2.50;;;26.00;1.00;;;;;;5059485;28;20479;-81
2022/06/27 08:58:37;;;;;;;4.03;2.30;;;25.80;1.00;;;;;;5074144;28;20415;-88
2022/06/27 09:01:04;;;;;;;6.60;3.17;;;25.50;1.00;;;;;;5072683;28;20490;-88
2022/06/27 09:03:32;;;;;;;2.77;2.53;;;25.30;1.00;;;;;;5072717;28;20472;-88
2022/06/27 09:06:03;;;;;;;5.13;2.23;;;25.00;1.00;;;;;;5072932;28;20476;-88
2022/06/27 09:08:33;;;;;;;2.90;2.50;;;24.80;1.00;;;;;;5074485;28;20492;-88
2022/06/27 09:11:00;;;;;;;2.37;2.27;;;24.70;1.00;;;;;;5071702;28;20465;-89
2022/06/27 09:13:28;;;;;;;9.37;2.47;;;24.50;1.00;;;;;;5062769;28;20439;-88
2022/06/27 09:15:59;;;;;;;3.17;2.60;;;24.40;1.00;;;;;;5087205;28;20430;-89
2022/06/27 09:18:31;;;;;;;3.83;2.63;;;24.10;1.00;;;;;;5073827;28;20562;-90
2022/06/27 09:21:04;;;;;;;2.57;2.00;;;23.80;1.00;;;;;;5070658;28;20432;-89
2022/06/27 09:23:53;;;;;;;4.23;2.83;;;23.70;1.00;;;;;;5068890;28;20473;-88
2022/06/27 09:26:35;;;;;;;3.00;2.37;;;23.40;1.00;;;;;;5079054;28;20464;-88
2022/06/27 09:29:06;;;;;;;5.63;2.40;;;23.40;1.00;;;;;;5072167;28;20427;-83
2022/06/27 09:31:38;;;;;;;4.23;2.60;;;23.60;1.00;;;;;;5064548;28;20516;-83
2022/06/27 09:34:10;;;;;;;3.97;2.33;;;24.00;1.00;;;;;;5068177;28;20440;-82
2022/06/27 09:37:01;;;;;;;2.83;2.53;;;24.20;1.00;;;;;;5069587;28;20426;-82
2022/06/27 09:39:30;;;;;;;2.70;2.50;;;24.50;1.00;;;;;;5060885;28;20919;-82
2022/06/27 09:42:02;;;;;;;6.03;2.23;;;24.40;1.00;;;;;;5072483;28;20417;-83
2022/06/27 09:44:38;;;;;;;2.80;2.23;;;24.70;1.00;;;;;;5069032;28;20444;-82
2022/06/27 09:47:11;;;;;;;5.23;2.17;;;24.90;1.00;;;;;;5062694;28;20455;-79
2022/06/27 09:49:39;;;;;;;6.43;3.10;;;24.90;1.00;;;;;;5070740;28;20771;-80
2022/06/27 09:52:08;;;;;;;4.20;2.20;;;25.00;1.00;;;;;;5072444;28;20464;-80
2022/06/27 09:54:36;;;;;;;2.03;1.83;;;25.10;1.00;;;;;;5064774;28;20426;-80
2022/06/27 09:57:04;;;;;;;2.03;1.80;;;25.30;1.00;;;;;;5063584;28;20517;-80
2022/06/27 09:59:30;;;;;;;3.43;1.70;;;25.20;1.00;;;;;;5075356;28;20438;-81
2022/06/27 10:01:57;;;;;;;2.37;2.17;;;25.40;1.00;;;;;;5075978;28;20428;-83
2022/06/27 10:04:26;;;;;;;1.80;1.70;;;25.70;1.00;;;;;;5076772;28;20917;-84
2022/06/27 10:06:54;;;;;;;5.97;1.87;;;25.70;1.00;;;;;;5066190;28;20822;-83
2022/06/27 10:09:24;;;;;;;2.10;1.90;;;25.90;1.00;;;;;;5076533;28;20433;-82
2022/06/27 10:12:23;;;;;;;2.10;1.90;;;26.20;1.00;;;;;;5075005;28;20470;-83
2022/06/27 10:15:11;;;;;;;2.27;1.93;;;26.30;1.00;;;;;;5075620;28;20428;-86
2022/06/27 10:17:41;;;;;;;2.43;2.00;;;26.00;1.00;;;;;;5064419;28;20511;-83
2022/06/27 10:20:12;;;;;;;3.97;1.73;;;25.80;1.00;;;;;;5076255;28;20501;-83
2022/06/27 10:22:39;;;;;;;5.70;1.60;;;26.00;1.00;;;;;;5063375;28;21102;-83
2022/06/27 10:25:26;;;;;;;2.83;1.70;;;26.20;1.00;;;;;;5071914;28;20509;-83
2022/06/27 10:28:10;;;;;;;1.97;1.80;;;26.60;1.00;;;;;;5068346;28;20414;-83
2022/06/27 10:30:43;;;;;;;1.80;1.63;;;26.50;1.00;;;;;;5075750;28;20415;-83
2022/06/27 10:33:26;;;;;;;3.67;1.80;;;26.70;1.00;;;;;;5076066;28;20404;-83
2022/06/27 10:35:55;;;;;;;7.50;1.90;;;26.70;1.00;;;;;;5074528;28;20474;-82
2022/06/27 10:38:30;;;;;;;3.90;1.70;;;26.80;1.00;;;;;;5074728;28;20473;-82
2022/06/27 10:40:57;;;;;;;5.20;1.70;;;26.60;1.00;;;;;;5074421;28;20417;-82
2022/06/27 10:43:35;;;;;;;3.13;1.70;;;26.80;1.00;;;;;;5076263;28;20446;-82
2022/06/27 10:46:13;;;;;;;1.93;1.47;;;26.70;1.00;;;;;;5069459;28;20494;-82
2022/06/27 10:48:50;;;;;;;3.50;1.63;;;26.70;1.00;;;;;;5075279;28;20787;-82
2022/06/27 10:51:29;;;;;;;1.70;1.60;;;26.60;1.00;;;;;;5075333;28;20515;-82
2022/06/27 10:54:04;;;;;;;1.20;1.10;;;26.60;1.00;;;;;;5075575;28;20475;-82
2022/06/27 10:56:30;;;;;;;1.80;1.70;;;26.70;1.00;;;;;;5087598;28;20808;-82
2022/06/27 10:59:27;;;;;;;2.07;1.70;;;26.70;1.00;;;;;;5075866;28;20901;-82
2022/06/27 11:01:58;;;;;;;1.83;1.73;;;27.00;1.00;;;;;;5074860;28;20424;-82
2022/06/27 11:04:24;;;;;;;2.83;2.07;;;27.30;1.00;;;;;;5075625;28;20915;-82
2022/06/27 11:06:56;;;;;;;4.17;1.73;;;27.70;1.00;;;;;;5075016;28;20455;-81
2022/06/27 11:09:45;;;;;;;4.83;2.40;;;27.90;1.00;;;;;;5075310;28;20402;-83
2022/06/27 11:12:13;;;;;;;3.57;2.00;;;27.10;1.00;;;;;;5074907;28;20993;-81
2022/06/27 11:14:53;;;;;;;2.30;2.10;;;26.70;1.00;;;;;;5075874;28;20402;-82
2022/06/27 11:17:38;;;;;;;2.73;2.27;;;26.50;1.00;;;;;;5074952;28;20428;-82
2022/06/27 11:20:26;;;;;;;4.50;3.10;;;26.00;1.00;;;;;;5075166;28;20414;-81
2022/06/27 11:22:56;;;;;;;2.70;2.27;;;25.70;1.00;;;;;;5062918;28;20448;-81
2022/06/27 11:25:23;;;;;;;4.70;3.10;;;25.60;1.00;;;;;;5071626;28;20469;-83
2022/06/27 11:27:55;;;;;;;4.30;3.47;;;25.20;1.00;;;;;;5074823;28;20453;-82
2022/06/27 11:33:16;;;;;;;3.17;2.10;;;24.40;1.00;;;;;;5073289;28;20419;-80
2022/06/27 11:35:41;;;;;;;4.30;1.97;;;23.90;1.00;;;;;;5057823;28;20454;-81
2022/06/27 11:38:08;;;;;;;2.03;1.90;;;23.60;1.00;;;;;;5074635;28;20455;-81
2022/06/27 11:40:34;;;;;;;2.40;2.20;;;23.40;1.00;;;;;;5074698;28;20175;-81
2022/06/27 11:42:59;;;;;;;2.53;2.27;;;23.40;1.00;;;;;;5074586;28;20404;-81
2022/06/27 11:45:25;;;;;;;8.80;2.60;;;23.30;1.00;;;;;;5074911;28;20644;-79
2022/06/27 11:47:51;;;;;;;3.00;2.70;;;23.50;1.00;;;;;;5074325;28;20559;-79
2022/06/27 11:50:19;;;;;;;3.63;2.30;;;23.60;1.00;;;;;;5070932;28;20177;-78
2022/06/27 11:52:50;;;;;;;5.20;2.90;;;23.50;1.00;;;;;;5080255;28;20177;-78
2022/06/27 11:55:21;;;;;;;5.37;2.83;;;23.80;1.00;;;;;;5074010;28;20423;-78
2022/06/27 11:57:51;;;;;;;3.30;3.00;;;24.30;1.00;;;;;;5073961;28;20420;-78
2022/06/27 12:00:22;;;;;;;4.47;2.67;;;24.60;1.00;;;;;;5074172;28;20507;-82
2022/06/27 12:03:00;;;;;;;2.20;2.10;;;24.80;1.00;;;;;;5061781;28;20435;-82
2022/06/27 12:05:26;;;;;;;3.33;2.37;;;25.30;1.00;;;;;;5074286;28;20961;-82
2022/06/27 12:08:05;;;;;;;2.60;2.40;;;25.60;1.00;;;;;;5073720;28;20466;-81
2022/06/27 12:10:41;;;;;;;5.53;2.47;;;25.60;1.00;;;;;;5073943;28;20911;-82
2022/06/27 12:13:17;;;;;;;7.67;2.63;;;25.80;1.00;;;;;;5074226;28;20459;-81
2022/06/27 12:15:46;;;;;;;2.40;2.20;;;26.00;1.00;;;;;;5074419;28;20541;-79
2022/06/27 12:18:13;;;;;;;5.30;2.37;;;26.50;1.00;;;;;;5073912;28;20439;-79
2022/06/27 12:20:44;;;;;;;3.90;2.50;;;26.50;1.00;;;;;;5073070;28;20411;-79
2022/06/27 12:23:10;;;;;;;3.70;2.63;;;27.00;1.00;;;;;;5056637;28;20452;-79
2022/06/27 12:25:36;;;;;;;4.00;2.07;;;27.10;1.00;;;;;;5072552;28;20947;-78
2022/06/27 12:28:04;;;;;;;4.57;2.43;;;27.10;1.00;;;;;;5073740;28;20416;-79
2022/06/27 12:30:29;;;;;;;4.03;2.13;;;27.20;1.00;;;;;;5066126;28;20301;-81
2022/06/27 12:32:55;;;;;;;1.97;1.87;;;27.20;1.00;;;;;;5073342;28;20439;-82
2022/06/27 12:35:21;;;;;;;1.80;1.70;;;27.30;1.00;;;;;;5071157;28;20194;-82
2022/06/27 12:37:46;;;;;;;3.93;2.10;;;27.40;1.00;;;;;;5066940;28;20191;-81
2022/06/27 12:40:12;;;;;;;2.23;2.10;;;27.30;1.00;;;;;;5073760;28;20182;-81
2022/06/27 12:42:38;;;;;;;1.80;1.70;;;27.00;1.00;;;;;;5073153;28;20185;-81
2022/06/27 12:45:04;;;;;;;2.03;1.93;;;26.70;1.00;;;;;;5073705;28;20720;-81
2022/06/27 12:47:30;;;;;;;2.03;1.90;;;26.80;1.00;;;;;;5073079;28;20463;-81
2022/06/27 12:49:56;;;;;;;4.23;2.10;;;26.50;1.00;;;;;;5073517;28;20416;-81
2022/06/27 12:52:22;;;;;;;1.80;1.70;;;26.50;1.00;;;;;;5060292;28;20757;-81
2022/06/27 12:54:47;;;;;;;1.93;1.83;;;26.70;1.00;;;;;;5073429;28;20635;-81
2022/06/27 12:57:13;;;;;;;1.87;1.77;;;27.00;1.00;;;;;;5072377;28;20177;-81
2022/06/27 12:59:42;;;;;;;1.70;1.60;;;26.90;1.00;;;;;;5061159;28;20264;-81
2022/06/27 13:02:09;;;;;;;6.57;1.60;;;26.80;1.00;;;;;;5072648;28;20429;-81
2022/06/27 13:04:35;;;;;;;1.60;1.50;;;26.80;1.00;;;;;;5073220;28;20475;-81